EEL RIVER CAMP CA US current weather conditions

sailwx.info

Wind from 252 at 1 knots gusting 4

Air temperature 13.3° C
Dewpoint 11.7° C

Last reported at 2016-Aug-27 12:28 UTC.
Time now 2016-Aug-27 13:28 UTC

Location: N 40°08' W 123°49'.
View on Google Maps.

See reports from other nearby stations

  
Tides and Currents Weather Stations Pressure Air Temp Water Temp Dewpoint Dewpoint Depression Visibility Wind Speed Wind Dir Waves Ship Positions
date/time (UTC)wind fromknots sea level pressurealtimeterstation pressurevisibilityair tempwater tempwave heightnotes
2016-Aug-27 12:28 252 1 gusting 4 13.3
2016-Aug-27 11:28 150 1 gusting 4 13.9
2016-Aug-27 10:28 279 2 gusting 3 13.9
2016-Aug-27 09:28 226 2 gusting 5 13.9
2016-Aug-27 08:28 262 2 gusting 3 13.9
2016-Aug-27 07:28 286 1 gusting 3 12.8
2016-Aug-27 06:28 271 1 gusting 2 12.8
2016-Aug-27 05:28 13.9
2016-Aug-27 04:28 268 2 gusting 5 15.6
2016-Aug-27 03:28 280 3 gusting 6 17.8
2016-Aug-27 02:28 274 3 gusting 7 20.6
2016-Aug-27 01:28 229 3 gusting 8 25.0
2016-Aug-27 00:28 204 5 gusting 9 27.8
2016-Aug-26 23:28 205 6 gusting 11 28.9
2016-Aug-26 22:28 184 6 gusting 11 30.0
2016-Aug-26 21:28 190 6 gusting 11 30.0
2016-Aug-26 20:28 194 5 gusting 9 30.0
2016-Aug-26 19:28 193 3 gusting 8 29.4
2016-Aug-26 18:28 163 3 gusting 6 26.7
2016-Aug-26 17:28 095 1 gusting 5 23.3
2016-Aug-26 16:28 089 1 gusting 2 19.4
2016-Aug-26 15:28 15.0
2016-Aug-26 14:28 10.0
2016-Aug-26 13:28 10.0
2016-Aug-26 12:28 10.0
2016-Aug-26 11:28 10.6
2016-Aug-26 10:28 11.7
2016-Aug-26 09:28 12.2
2016-Aug-26 08:28 329 0 gusting 1 13.3
2016-Aug-26 07:28 14.4
2016-Aug-26 06:28 15.6
2016-Aug-26 05:28 306 1 gusting 2 17.2
2016-Aug-26 04:28 271 0 gusting 2 19.4
2016-Aug-26 03:28 280 1 gusting 4 22.2
2016-Aug-26 02:28 164 3 gusting 8 28.3
2016-Aug-26 01:28 161 6 gusting 11 30.6
2016-Aug-26 00:28 195 7 gusting 13 31.7
2016-Aug-25 23:28 223 6 gusting 13 34.4
2016-Aug-25 22:28 218 7 gusting 13 35.0
2016-Aug-25 21:28 247 6 gusting 12 35.6
2016-Aug-25 20:28 126 3 gusting 8 34.4
2016-Aug-25 19:28 316 1 gusting 5 32.8
2016-Aug-25 18:28 230 1 gusting 4 27.8
2016-Aug-25 17:28 225 2 gusting 5 22.8
2016-Aug-25 16:28 160 0 gusting 3 18.9
2016-Aug-25 15:28 163 2 gusting 3 13.3
2016-Aug-25 14:28 8.9
2016-Aug-25 13:28 256 0 gusting 1 8.3